Terminal Aerodrome Forecast
Issued by NWS

Home | Current Version | Previous Version | Text Only | Print | Product List | Glossary On
Versions: 1 2 3 4 5 6 7 8 9 10 11 12 13
000
FTUS45 KCYS 252320
TAFLAR
TAF
KLAR 252320Z 2600/2624 29014G25KT P6SM VCTS BKN060CB
     FM260300 30009KT P6SM BKN080
     FM260600 15007KT P6SM BKN050
     FM261000 16007KT 2SM BR BKN015
     FM261500 16015G25KT P6SM BKN050
     FM261900 19025G35KT P6SM VCTS BKN080CB=

USA.gov is the U.S. government's official web portal to all federal, state and local government web resources and services.